sensor_id;sensor_type;location;lat;lon;timestamp;temperature;humidity
21115;DHT22;10715;48.546;9.896;2023-05-29T00:00:21;9.60;99.90
21115;DHT22;10715;48.546;9.896;2023-05-29T00:02:48;9.50;99.90
21115;DHT22;10715;48.546;9.896;2023-05-29T00:05:14;9.40;99.90
21115;DHT22;10715;48.546;9.896;2023-05-29T00:07:41;9.30;99.90
21115;DHT22;10715;48.546;9.896;2023-05-29T00:10:08;9.30;99.90
21115;DHT22;10715;48.546;9.896;2023-05-29T00:12:34;9.30;99.90
21115;DHT22;10715;48.546;9.896;2023-05-29T00:15:00;9.30;99.90
21115;DHT22;10715;48.546;9.896;2023-05-29T00:17:26;9.30;99.90
21115;DHT22;10715;48.546;9.896;2023-05-29T00:19:52;9.20;99.90
21115;DHT22;10715;48.546;9.896;2023-05-29T00:22:18;9.20;99.90
21115;DHT22;10715;48.546;9.896;2023-05-29T00:24:44;9.10;99.90
21115;DHT22;10715;48.546;9.896;2023-05-29T00:27:10;9.10;99.90
21115;DHT22;10715;48.546;9.896;2023-05-29T00:29:39;9.00;99.90
21115;DHT22;10715;48.546;9.896;2023-05-29T00:32:05;8.90;99.90
21115;DHT22;10715;48.546;9.896;2023-05-29T00:34:31;8.90;99.90
21115;DHT22;10715;48.546;9.896;2023-05-29T00:36:57;8.80;99.90
21115;DHT22;10715;48.546;9.896;2023-05-29T00:39:23;8.70;99.90
21115;DHT22;10715;48.546;9.896;2023-05-29T00:41:48;8.70;99.90
21115;DHT22;10715;48.546;9.896;2023-05-29T00:44:21;8.60;99.90
21115;DHT22;10715;48.546;9.896;2023-05-29T00:46:52;8.60;99.90
21115;DHT22;10715;48.546;9.896;2023-05-29T00:49:20;8.60;99.90
21115;DHT22;10715;48.546;9.896;2023-05-29T00:51:48;8.60;99.90
21115;DHT22;10715;48.546;9.896;2023-05-29T00:54:20;8.60;99.90
21115;DHT22;10715;48.546;9.896;2023-05-29T00:56:47;8.50;99.90
21115;DHT22;10715;48.546;9.896;2023-05-29T00:59:13;8.50;99.90
21115;DHT22;10715;48.546;9.896;2023-05-29T01:01:40;8.50;99.90
21115;DHT22;10715;48.546;9.896;2023-05-29T01:04:06;8.50;99.90
21115;DHT22;10715;48.546;9.896;2023-05-29T01:06:33;8.40;99.90
21115;DHT22;10715;48.546;9.896;2023-05-29T01:08:58;8.40;99.90
21115;DHT22;10715;48.546;9.896;2023-05-29T01:14:52;8.30;99.90
21115;DHT22;10715;48.546;9.896;2023-05-29T01:17:24;8.20;99.90
21115;DHT22;10715;48.546;9.896;2023-05-29T01:25:46;8.20;99.90
21115;DHT22;10715;48.546;9.896;2023-05-29T01:28:18;8.10;99.90
21115;DHT22;10715;48.546;9.896;2023-05-29T01:30:45;8.10;99.90
21115;DHT22;10715;48.546;9.896;2023-05-29T01:33:12;8.00;99.90
21115;DHT22;10715;48.546;9.896;2023-05-29T01:35:37;8.00;99.90
21115;DHT22;10715;48.546;9.896;2023-05-29T01:38:03;7.90;99.90
21115;DHT22;10715;48.546;9.896;2023-05-29T01:40:29;7.90;99.90
21115;DHT22;10715;48.546;9.896;2023-05-29T01:42:54;7.90;99.90
21115;DHT22;10715;48.546;9.896;2023-05-29T01:45:20;7.90;99.90
21115;DHT22;10715;48.546;9.896;2023-05-29T01:47:46;7.80;99.90
21115;DHT22;10715;48.546;9.896;2023-05-29T01:50:15;7.80;99.90
21115;DHT22;10715;48.546;9.896;2023-05-29T01:52:43;7.80;99.90
21115;DHT22;10715;48.546;9.896;2023-05-29T01:55:09;7.90;99.90
21115;DHT22;10715;48.546;9.896;2023-05-29T01:57:35;7.90;99.90
21115;DHT22;10715;48.546;9.896;2023-05-29T02:00:03;7.90;99.90
21115;DHT22;10715;48.546;9.896;2023-05-29T02:02:39;7.90;99.90
21115;DHT22;10715;48.546;9.896;2023-05-29T02:05:07;7.90;99.90
21115;DHT22;10715;48.546;9.896;2023-05-29T02:07:33;7.80;99.90
21115;DHT22;10715;48.546;9.896;2023-05-29T02:09:59;7.80;99.90
21115;DHT22;10715;48.546;9.896;2023-05-29T02:12:25;7.70;99.90
21115;DHT22;10715;48.546;9.896;2023-05-29T02:14:51;7.70;99.90
21115;DHT22;10715;48.546;9.896;2023-05-29T02:17:17;7.60;99.90
21115;DHT22;10715;48.546;9.896;2023-05-29T02:19:44;7.60;99.90
21115;DHT22;10715;48.546;9.896;2023-05-29T02:22:10;7.50;99.90
21115;DHT22;10715;48.546;9.896;2023-05-29T02:24:36;7.50;99.90
21115;DHT22;10715;48.546;9.896;2023-05-29T02:27:01;7.40;99.90
21115;DHT22;10715;48.546;9.896;2023-05-29T02:29:28;7.40;99.90
21115;DHT22;10715;48.546;9.896;2023-05-29T02:31:54;7.40;99.90
21115;DHT22;10715;48.546;9.896;2023-05-29T02:34:20;7.30;99.90
21115;DHT22;10715;48.546;9.896;2023-05-29T02:36:48;7.30;99.90
21115;DHT22;10715;48.546;9.896;2023-05-29T02:39:14;7.30;99.90
21115;DHT22;10715;48.546;9.896;2023-05-29T02:41:40;7.30;99.90
21115;DHT22;10715;48.546;9.896;2023-05-29T02:44:05;7.30;99.90
21115;DHT22;10715;48.546;9.896;2023-05-29T02:46:31;7.30;99.90
21115;DHT22;10715;48.546;9.896;2023-05-29T02:48:57;7.20;99.90
21115;DHT22;10715;48.546;9.896;2023-05-29T02:51:22;7.20;99.90
21115;DHT22;10715;48.546;9.896;2023-05-29T02:53:48;7.20;99.90
21115;DHT22;10715;48.546;9.896;2023-05-29T02:56:14;7.20;99.90
21115;DHT22;10715;48.546;9.896;2023-05-29T02:58:41;7.20;99.90
21115;DHT22;10715;48.546;9.896;2023-05-29T03:01:07;7.20;99.90
21115;DHT22;10715;48.546;9.896;2023-05-29T03:03:33;7.20;99.90
21115;DHT22;10715;48.546;9.896;2023-05-29T03:05:59;7.20;99.90
21115;DHT22;10715;48.546;9.896;2023-05-29T03:08:26;7.20;99.90
21115;DHT22;10715;48.546;9.896;2023-05-29T03:10:53;7.10;99.90
21115;DHT22;10715;48.546;9.896;2023-05-29T03:13:18;7.10;99.90
21115;DHT22;10715;48.546;9.896;2023-05-29T03:15:44;7.10;99.90
21115;DHT22;10715;48.546;9.896;2023-05-29T03:18:10;7.10;99.90
21115;DHT22;10715;48.546;9.896;2023-05-29T03:20:35;7.10;99.90
21115;DHT22;10715;48.546;9.896;2023-05-29T03:23:02;7.10;99.90
21115;DHT22;10715;48.546;9.896;2023-05-29T03:25:27;7.10;99.90
21115;DHT22;10715;48.546;9.896;2023-05-29T03:27:53;7.10;99.90
21115;DHT22;10715;48.546;9.896;2023-05-29T03:30:19;7.10;99.90
21115;DHT22;10715;48.546;9.896;2023-05-29T03:32:46;7.10;99.90
21115;DHT22;10715;48.546;9.896;2023-05-29T03:35:11;7.10;99.90
21115;DHT22;10715;48.546;9.896;2023-05-29T03:37:37;7.10;99.90
21115;DHT22;10715;48.546;9.896;2023-05-29T03:40:03;7.10;99.90
21115;DHT22;10715;48.546;9.896;2023-05-29T03:42:30;7.10;99.90
21115;DHT22;10715;48.546;9.896;2023-05-29T03:44:56;7.10;99.90
21115;DHT22;10715;48.546;9.896;2023-05-29T03:47:22;7.10;99.90
21115;DHT22;10715;48.546;9.896;2023-05-29T03:49:48;7.00;99.90
21115;DHT22;10715;48.546;9.896;2023-05-29T03:52:14;7.00;99.90
21115;DHT22;10715;48.546;9.896;2023-05-29T03:54:40;7.00;99.90
21115;DHT22;10715;48.546;9.896;2023-05-29T03:57:05;7.00;99.90
21115;DHT22;10715;48.546;9.896;2023-05-29T03:59:32;7.00;99.90
21115;DHT22;10715;48.546;9.896;2023-05-29T04:01:58;7.00;99.90
21115;DHT22;10715;48.546;9.896;2023-05-29T04:04:23;7.00;99.90
21115;DHT22;10715;48.546;9.896;2023-05-29T04:06:49;7.00;99.90
21115;DHT22;10715;48.546;9.896;2023-05-29T04:09:15;7.00;99.90
21115;DHT22;10715;48.546;9.896;2023-05-29T04:11:41;7.10;99.90
21115;DHT22;10715;48.546;9.896;2023-05-29T04:14:09;7.00;99.90
21115;DHT22;10715;48.546;9.896;2023-05-29T04:16:35;7.00;99.90
21115;DHT22;10715;48.546;9.896;2023-05-29T04:19:01;7.00;99.90
21115;DHT22;10715;48.546;9.896;2023-05-29T04:21:27;7.00;99.90
21115;DHT22;10715;48.546;9.896;2023-05-29T04:23:53;7.00;99.90
21115;DHT22;10715;48.546;9.896;2023-05-29T04:26:20;7.00;99.90
21115;DHT22;10715;48.546;9.896;2023-05-29T04:28:51;7.00;99.90
21115;DHT22;10715;48.546;9.896;2023-05-29T04:31:23;7.10;99.90
21115;DHT22;10715;48.546;9.896;2023-05-29T04:33:52;7.10;99.90
21115;DHT22;10715;48.546;9.896;2023-05-29T04:36:22;7.10;99.90
21115;DHT22;10715;48.546;9.896;2023-05-29T04:38:51;7.10;99.90
21115;DHT22;10715;48.546;9.896;2023-05-29T04:41:17;7.20;99.90
21115;DHT22;10715;48.546;9.896;2023-05-29T04:43:42;7.20;99.90
21115;DHT22;10715;48.546;9.896;2023-05-29T04:46:09;7.20;99.90
21115;DHT22;10715;48.546;9.896;2023-05-29T04:48:38;7.30;99.90
21115;DHT22;10715;48.546;9.896;2023-05-29T04:51:06;7.30;99.90
21115;DHT22;10715;48.546;9.896;2023-05-29T04:53:32;7.40;99.90
21115;DHT22;10715;48.546;9.896;2023-05-29T04:55:58;7.40;99.90
21115;DHT22;10715;48.546;9.896;2023-05-29T04:58:26;7.40;99.90
21115;DHT22;10715;48.546;9.896;2023-05-29T05:00:52;7.50;99.90
21115;DHT22;10715;48.546;9.896;2023-05-29T05:03:18;7.50;99.90
21115;DHT22;10715;48.546;9.896;2023-05-29T05:05:43;7.60;99.90
21115;DHT22;10715;48.546;9.896;2023-05-29T05:08:10;7.70;99.90
21115;DHT22;10715;48.546;9.896;2023-05-29T05:10:37;7.70;99.90
21115;DHT22;10715;48.546;9.896;2023-05-29T05:13:03;7.80;99.90
21115;DHT22;10715;48.546;9.896;2023-05-29T05:15:28;7.80;99.90
21115;DHT22;10715;48.546;9.896;2023-05-29T05:17:54;7.90;99.90
21115;DHT22;10715;48.546;9.896;2023-05-29T05:20:20;8.00;99.90
21115;DHT22;10715;48.546;9.896;2023-05-29T05:22:45;8.10;99.90
21115;DHT22;10715;48.546;9.896;2023-05-29T05:25:11;8.20;99.90
21115;DHT22;10715;48.546;9.896;2023-05-29T05:27:37;8.30;99.90
21115;DHT22;10715;48.546;9.896;2023-05-29T05:30:03;8.40;99.90
21115;DHT22;10715;48.546;9.896;2023-05-29T05:32:29;8.50;99.90
21115;DHT22;10715;48.546;9.896;2023-05-29T05:34:55;8.60;99.90
21115;DHT22;10715;48.546;9.896;2023-05-29T05:37:21;8.80;99.90
21115;DHT22;10715;48.546;9.896;2023-05-29T05:39:49;8.90;99.90
21115;DHT22;10715;48.546;9.896;2023-05-29T05:42:16;9.10;99.90
21115;DHT22;10715;48.546;9.896;2023-05-29T05:44:41;9.20;99.90
21115;DHT22;10715;48.546;9.896;2023-05-29T05:47:07;9.40;99.90
21115;DHT22;10715;48.546;9.896;2023-05-29T05:49:33;9.70;99.90
21115;DHT22;10715;48.546;9.896;2023-05-29T05:51:59;10.00;99.90
21115;DHT22;10715;48.546;9.896;2023-05-29T05:54:25;10.30;99.90
21115;DHT22;10715;48.546;9.896;2023-05-29T05:56:50;10.50;99.90
21115;DHT22;10715;48.546;9.896;2023-05-29T05:59:16;10.70;99.90
21115;DHT22;10715;48.546;9.896;2023-05-29T06:01:42;11.00;99.90
21115;DHT22;10715;48.546;9.896;2023-05-29T06:04:07;11.20;99.90
21115;DHT22;10715;48.546;9.896;2023-05-29T06:06:34;11.40;99.90
21115;DHT22;10715;48.546;9.896;2023-05-29T06:09:00;11.70;99.90
21115;DHT22;10715;48.546;9.896;2023-05-29T06:11:25;11.90;99.90
21115;DHT22;10715;48.546;9.896;2023-05-29T06:13:51;12.10;99.90
21115;DHT22;10715;48.546;9.896;2023-05-29T06:16:18;12.40;99.90
21115;DHT22;10715;48.546;9.896;2023-05-29T06:18:44;12.50;99.90
21115;DHT22;10715;48.546;9.896;2023-05-29T06:21:13;12.80;99.90
21115;DHT22;10715;48.546;9.896;2023-05-29T06:23:39;13.10;99.90
21115;DHT22;10715;48.546;9.896;2023-05-29T06:26:06;13.30;99.90
21115;DHT22;10715;48.546;9.896;2023-05-29T06:28:32;13.60;99.90
21115;DHT22;10715;48.546;9.896;2023-05-29T06:30:58;13.80;99.90
21115;DHT22;10715;48.546;9.896;2023-05-29T06:33:24;14.00;99.90
21115;DHT22;10715;48.546;9.896;2023-05-29T06:35:49;14.30;99.90
21115;DHT22;10715;48.546;9.896;2023-05-29T06:38:15;14.60;99.90
21115;DHT22;10715;48.546;9.896;2023-05-29T06:40:41;15.00;99.90
21115;DHT22;10715;48.546;9.896;2023-05-29T06:43:07;15.40;99.90
21115;DHT22;10715;48.546;9.896;2023-05-29T06:45:34;15.60;99.90
21115;DHT22;10715;48.546;9.896;2023-05-29T06:48:00;15.80;99.90
21115;DHT22;10715;48.546;9.896;2023-05-29T06:50:26;15.90;99.90
21115;DHT22;10715;48.546;9.896;2023-05-29T06:52:52;16.10;99.90
21115;DHT22;10715;48.546;9.896;2023-05-29T06:55:18;16.20;99.90
21115;DHT22;10715;48.546;9.896;2023-05-29T06:57:43;16.30;99.90
21115;DHT22;10715;48.546;9.896;2023-05-29T07:00:10;16.40;99.90
21115;DHT22;10715;48.546;9.896;2023-05-29T07:02:36;16.50;99.90
21115;DHT22;10715;48.546;9.896;2023-05-29T07:05:02;16.60;99.90
21115;DHT22;10715;48.546;9.896;2023-05-29T07:07:29;16.60;99.90
21115;DHT22;10715;48.546;9.896;2023-05-29T07:09:55;16.80;99.90
21115;DHT22;10715;48.546;9.896;2023-05-29T07:12:22;17.10;99.90
21115;DHT22;10715;48.546;9.896;2023-05-29T07:14:48;17.10;99.90
21115;DHT22;10715;48.546;9.896;2023-05-29T07:17:15;17.20;99.90
21115;DHT22;10715;48.546;9.896;2023-05-29T07:19:41;17.40;99.90
21115;DHT22;10715;48.546;9.896;2023-05-29T07:22:07;17.40;99.90
21115;DHT22;10715;48.546;9.896;2023-05-29T07:24:32;17.50;99.90
21115;DHT22;10715;48.546;9.896;2023-05-29T07:26:58;17.70;99.90
21115;DHT22;10715;48.546;9.896;2023-05-29T07:29:24;17.70;99.90
21115;DHT22;10715;48.546;9.896;2023-05-29T07:31:51;17.90;99.90
21115;DHT22;10715;48.546;9.896;2023-05-29T07:34:17;18.00;99.90
21115;DHT22;10715;48.546;9.896;2023-05-29T07:37:04;18.10;99.90
21115;DHT22;10715;48.546;9.896;2023-05-29T07:39:31;18.30;99.90
21115;DHT22;10715;48.546;9.896;2023-05-29T07:41:57;18.50;99.90
21115;DHT22;10715;48.546;9.896;2023-05-29T07:44:22;18.50;99.90
21115;DHT22;10715;48.546;9.896;2023-05-29T07:46:48;18.60;99.90
21115;DHT22;10715;48.546;9.896;2023-05-29T07:49:14;18.70;99.90
21115;DHT22;10715;48.546;9.896;2023-05-29T07:51:41;18.90;99.90
21115;DHT22;10715;48.546;9.896;2023-05-29T07:54:06;19.00;99.90
21115;DHT22;10715;48.546;9.896;2023-05-29T07:56:32;19.10;99.90
21115;DHT22;10715;48.546;9.896;2023-05-29T07:59:00;19.10;99.90
21115;DHT22;10715;48.546;9.896;2023-05-29T08:01:26;19.30;99.90
21115;DHT22;10715;48.546;9.896;2023-05-29T08:03:52;19.30;99.90
21115;DHT22;10715;48.546;9.896;2023-05-29T08:06:18;19.50;99.90
21115;DHT22;10715;48.546;9.896;2023-05-29T08:08:44;19.50;99.90
21115;DHT22;10715;48.546;9.896;2023-05-29T08:11:10;19.60;99.90
21115;DHT22;10715;48.546;9.896;2023-05-29T08:13:36;19.70;99.90
21115;DHT22;10715;48.546;9.896;2023-05-29T08:16:02;19.80;99.90
21115;DHT22;10715;48.546;9.896;2023-05-29T08:18:30;19.90;99.90
21115;DHT22;10715;48.546;9.896;2023-05-29T08:20:56;19.90;99.90
21115;DHT22;10715;48.546;9.896;2023-05-29T08:23:22;19.80;99.90
21115;DHT22;10715;48.546;9.896;2023-05-29T08:25:48;19.80;99.90
21115;DHT22;10715;48.546;9.896;2023-05-29T08:28:17;19.90;99.90
21115;DHT22;10715;48.546;9.896;2023-05-29T08:30:42;19.90;99.90
21115;DHT22;10715;48.546;9.896;2023-05-29T08:33:08;19.90;99.90
21115;DHT22;10715;48.546;9.896;2023-05-29T08:35:34;19.90;99.90
21115;DHT22;10715;48.546;9.896;2023-05-29T08:38:00;19.80;99.90
21115;DHT22;10715;48.546;9.896;2023-05-29T08:40:26;19.90;99.90
21115;DHT22;10715;48.546;9.896;2023-05-29T08:43:06;20.00;99.90
21115;DHT22;10715;48.546;9.896;2023-05-29T08:45:34;20.00;99.90
21115;DHT22;10715;48.546;9.896;2023-05-29T08:48:03;20.00;99.90
21115;DHT22;10715;48.546;9.896;2023-05-29T08:50:30;20.10;99.90
21115;DHT22;10715;48.546;9.896;2023-05-29T08:52:56;20.20;99.90
21115;DHT22;10715;48.546;9.896;2023-05-29T08:55:23;20.20;99.90
21115;DHT22;10715;48.546;9.896;2023-05-29T08:57:49;20.30;99.90
21115;DHT22;10715;48.546;9.896;2023-05-29T09:00:15;20.30;99.90
21115;DHT22;10715;48.546;9.896;2023-05-29T09:02:43;20.40;99.90
21115;DHT22;10715;48.546;9.896;2023-05-29T09:05:10;20.40;99.90
21115;DHT22;10715;48.546;9.896;2023-05-29T09:07:36;20.40;99.90
21115;DHT22;10715;48.546;9.896;2023-05-29T09:10:08;20.40;99.90
21115;DHT22;10715;48.546;9.896;2023-05-29T09:12:35;20.40;99.90
21115;DHT22;10715;48.546;9.896;2023-05-29T09:15:01;20.40;99.90
21115;DHT22;10715;48.546;9.896;2023-05-29T09:17:34;20.40;99.90
21115;DHT22;10715;48.546;9.896;2023-05-29T09:19:59;20.50;99.90
21115;DHT22;10715;48.546;9.896;2023-05-29T09:22:26;20.50;99.90
21115;DHT22;10715;48.546;9.896;2023-05-29T09:24:52;20.60;99.90
21115;DHT22;10715;48.546;9.896;2023-05-29T09:27:18;20.70;99.90
21115;DHT22;10715;48.546;9.896;2023-05-29T09:29:45;20.80;99.90
21115;DHT22;10715;48.546;9.896;2023-05-29T09:32:18;20.90;99.90
21115;DHT22;10715;48.546;9.896;2023-05-29T09:34:45;20.90;99.90
21115;DHT22;10715;48.546;9.896;2023-05-29T09:37:11;20.90;99.90
21115;DHT22;10715;48.546;9.896;2023-05-29T09:39:48;21.00;99.90
21115;DHT22;10715;48.546;9.896;2023-05-29T09:42:17;21.00;99.90
21115;DHT22;10715;48.546;9.896;2023-05-29T09:44:45;21.00;99.90
21115;DHT22;10715;48.546;9.896;2023-05-29T09:47:18;21.10;99.40
21115;DHT22;10715;48.546;9.896;2023-05-29T09:49:45;21.00;99.10
21115;DHT22;10715;48.546;9.896;2023-05-29T09:52:12;21.00;99.90
21115;DHT22;10715;48.546;9.896;2023-05-29T09:54:44;21.10;99.30
21115;DHT22;10715;48.546;9.896;2023-05-29T09:57:14;21.10;98.90
21115;DHT22;10715;48.546;9.896;2023-05-29T09:59:43;21.20;98.80
21115;DHT22;10715;48.546;9.896;2023-05-29T10:02:11;21.20;98.00
21115;DHT22;10715;48.546;9.896;2023-05-29T10:04:39;21.20;98.60
21115;DHT22;10715;48.546;9.896;2023-05-29T10:07:10;21.20;98.10
21115;DHT22;10715;48.546;9.896;2023-05-29T10:09:41;21.20;98.30
21115;DHT22;10715;48.546;9.896;2023-05-29T10:12:11;21.20;96.40
21115;DHT22;10715;48.546;9.896;2023-05-29T10:14:37;21.20;95.80
21115;DHT22;10715;48.546;9.896;2023-05-29T10:17:07;21.20;96.60
21115;DHT22;10715;48.546;9.896;2023-05-29T10:19:36;21.20;94.90
21115;DHT22;10715;48.546;9.896;2023-05-29T10:22:03;21.10;94.80
21115;DHT22;10715;48.546;9.896;2023-05-29T10:24:30;21.00;95.70
21115;DHT22;10715;48.546;9.896;2023-05-29T10:26:58;21.00;94.60
21115;DHT22;10715;48.546;9.896;2023-05-29T10:29:52;21.10;95.40
21115;DHT22;10715;48.546;9.896;2023-05-29T10:32:23;21.10;95.00
21115;DHT22;10715;48.546;9.896;2023-05-29T10:40:13;21.30;94.70
21115;DHT22;10715;48.546;9.896;2023-05-29T10:42:49;21.30;95.60
21115;DHT22;10715;48.546;9.896;2023-05-29T10:50:47;21.50;94.30
21115;DHT22;10715;48.546;9.896;2023-05-29T10:53:17;21.40;94.00
21115;DHT22;10715;48.546;9.896;2023-05-29T10:55:45;21.40;93.60
21115;DHT22;10715;48.546;9.896;2023-05-29T10:58:14;21.40;93.10
21115;DHT22;10715;48.546;9.896;2023-05-29T11:00:41;21.40;93.60
21115;DHT22;10715;48.546;9.896;2023-05-29T11:03:14;21.40;93.60
21115;DHT22;10715;48.546;9.896;2023-05-29T11:06:04;21.40;93.60
21115;DHT22;10715;48.546;9.896;2023-05-29T11:08:53;21.40;90.50
21115;DHT22;10715;48.546;9.896;2023-05-29T11:11:32;21.30;91.10
21115;DHT22;10715;48.546;9.896;2023-05-29T11:14:05;21.20;91.60
21115;DHT22;10715;48.546;9.896;2023-05-29T11:18:59;21.30;90.30
21115;DHT22;10715;48.546;9.896;2023-05-29T11:21:38;21.30;90.80
21115;DHT22;10715;48.546;9.896;2023-05-29T11:24:23;21.30;90.30
21115;DHT22;10715;48.546;9.896;2023-05-29T11:26:51;21.30;87.30
21115;DHT22;10715;48.546;9.896;2023-05-29T11:29:24;21.30;88.00
21115;DHT22;10715;48.546;9.896;2023-05-29T11:32:04;21.30;89.90
21115;DHT22;10715;48.546;9.896;2023-05-29T11:34:31;21.20;85.60
21115;DHT22;10715;48.546;9.896;2023-05-29T11:37:02;21.20;84.90
21115;DHT22;10715;48.546;9.896;2023-05-29T11:39:29;21.20;86.90
21115;DHT22;10715;48.546;9.896;2023-05-29T11:41:55;21.30;86.20
21115;DHT22;10715;48.546;9.896;2023-05-29T11:44:23;21.30;86.10
21115;DHT22;10715;48.546;9.896;2023-05-29T11:49:36;21.40;86.90
21115;DHT22;10715;48.546;9.896;2023-05-29T11:52:06;21.50;85.90
21115;DHT22;10715;48.546;9.896;2023-05-29T11:54:35;21.50;85.40
21115;DHT22;10715;48.546;9.896;2023-05-29T11:57:02;21.50;88.00
21115;DHT22;10715;48.546;9.896;2023-05-29T11:59:34;21.50;87.00
21115;DHT22;10715;48.546;9.896;2023-05-29T12:02:02;21.50;87.10
21115;DHT22;10715;48.546;9.896;2023-05-29T12:04:28;21.50;86.60
21115;DHT22;10715;48.546;9.896;2023-05-29T12:06:54;21.60;86.20
21115;DHT22;10715;48.546;9.896;2023-05-29T12:09:27;21.60;86.90
21115;DHT22;10715;48.546;9.896;2023-05-29T12:12:01;21.60;88.60
21115;DHT22;10715;48.546;9.896;2023-05-29T12:14:26;21.70;88.40
21115;DHT22;10715;48.546;9.896;2023-05-29T12:16:52;21.70;87.30
21115;DHT22;10715;48.546;9.896;2023-05-29T12:19:18;21.70;84.90
21115;DHT22;10715;48.546;9.896;2023-05-29T12:21:44;21.70;86.90
21115;DHT22;10715;48.546;9.896;2023-05-29T12:24:10;21.70;85.50
21115;DHT22;10715;48.546;9.896;2023-05-29T12:26:36;21.70;83.80
21115;DHT22;10715;48.546;9.896;2023-05-29T12:29:05;21.70;84.70
21115;DHT22;10715;48.546;9.896;2023-05-29T12:31:31;21.70;85.20
21115;DHT22;10715;48.546;9.896;2023-05-29T12:34:16;21.70;85.00
21115;DHT22;10715;48.546;9.896;2023-05-29T12:36:43;21.70;83.60
21115;DHT22;10715;48.546;9.896;2023-05-29T12:39:09;21.70;84.70
21115;DHT22;10715;48.546;9.896;2023-05-29T12:41:36;21.80;84.80
21115;DHT22;10715;48.546;9.896;2023-05-29T12:44:03;21.80;83.30
21115;DHT22;10715;48.546;9.896;2023-05-29T12:46:36;21.80;83.70
21115;DHT22;10715;48.546;9.896;2023-05-29T12:49:16;21.80;85.20
21115;DHT22;10715;48.546;9.896;2023-05-29T12:51:43;21.80;82.10
21115;DHT22;10715;48.546;9.896;2023-05-29T12:54:13;21.80;83.90
21115;DHT22;10715;48.546;9.896;2023-05-29T12:56:40;21.80;80.80
21115;DHT22;10715;48.546;9.896;2023-05-29T12:59:07;21.70;82.80
21115;DHT22;10715;48.546;9.896;2023-05-29T13:01:33;21.70;83.60
21115;DHT22;10715;48.546;9.896;2023-05-29T13:03:59;21.70;82.60
21115;DHT22;10715;48.546;9.896;2023-05-29T13:06:25;21.70;83.30
21115;DHT22;10715;48.546;9.896;2023-05-29T13:08:51;21.80;84.70
21115;DHT22;10715;48.546;9.896;2023-05-29T13:11:17;21.80;85.00
21115;DHT22;10715;48.546;9.896;2023-05-29T13:13:43;21.80;82.80
21115;DHT22;10715;48.546;9.896;2023-05-29T13:16:09;21.80;80.50
21115;DHT22;10715;48.546;9.896;2023-05-29T13:18:34;21.90;81.90
21115;DHT22;10715;48.546;9.896;2023-05-29T13:21:00;21.90;81.20
21115;DHT22;10715;48.546;9.896;2023-05-29T13:23:26;21.80;77.30
21115;DHT22;10715;48.546;9.896;2023-05-29T13:25:52;21.80;76.00
21115;DHT22;10715;48.546;9.896;2023-05-29T13:28:17;21.70;77.20
21115;DHT22;10715;48.546;9.896;2023-05-29T13:30:44;21.80;79.00
21115;DHT22;10715;48.546;9.896;2023-05-29T13:33:10;21.80;76.50
21115;DHT22;10715;48.546;9.896;2023-05-29T13:35:36;21.90;74.00
21115;DHT22;10715;48.546;9.896;2023-05-29T13:38:01;21.90;75.20
21115;DHT22;10715;48.546;9.896;2023-05-29T13:40:27;21.90;75.20
21115;DHT22;10715;48.546;9.896;2023-05-29T13:42:53;21.90;76.30
21115;DHT22;10715;48.546;9.896;2023-05-29T13:45:19;21.90;76.30
21115;DHT22;10715;48.546;9.896;2023-05-29T13:47:45;22.00;74.90
21115;DHT22;10715;48.546;9.896;2023-05-29T13:50:11;22.00;73.90
21115;DHT22;10715;48.546;9.896;2023-05-29T13:52:37;22.00;72.80
21115;DHT22;10715;48.546;9.896;2023-05-29T13:55:03;22.00;73.60
21115;DHT22;10715;48.546;9.896;2023-05-29T13:57:34;22.00;74.00
21115;DHT22;10715;48.546;9.896;2023-05-29T14:00:02;22.00;72.80
21115;DHT22;10715;48.546;9.896;2023-05-29T14:02:28;22.00;73.80
21115;DHT22;10715;48.546;9.896;2023-05-29T14:04:54;22.00;74.20
21115;DHT22;10715;48.546;9.896;2023-05-29T14:07:19;22.00;73.00
21115;DHT22;10715;48.546;9.896;2023-05-29T14:09:45;22.00;73.70
21115;DHT22;10715;48.546;9.896;2023-05-29T14:12:11;22.00;72.60
21115;DHT22;10715;48.546;9.896;2023-05-29T14:14:36;22.00;72.10
21115;DHT22;10715;48.546;9.896;2023-05-29T14:17:03;22.00;74.80
21115;DHT22;10715;48.546;9.896;2023-05-29T14:19:30;22.10;73.90
21115;DHT22;10715;48.546;9.896;2023-05-29T14:21:56;22.10;72.10
21115;DHT22;10715;48.546;9.896;2023-05-29T14:24:22;22.10;71.30
21115;DHT22;10715;48.546;9.896;2023-05-29T14:26:47;22.20;70.70
21115;DHT22;10715;48.546;9.896;2023-05-29T14:29:14;22.20;70.00
21115;DHT22;10715;48.546;9.896;2023-05-29T14:31:41;22.30;70.40
21115;DHT22;10715;48.546;9.896;2023-05-29T14:34:07;22.30;69.80
21115;DHT22;10715;48.546;9.896;2023-05-29T14:36:33;22.30;70.50
21115;DHT22;10715;48.546;9.896;2023-05-29T14:38:59;22.30;71.00
21115;DHT22;10715;48.546;9.896;2023-05-29T14:41:24;22.30;70.70
21115;DHT22;10715;48.546;9.896;2023-05-29T14:43:51;22.30;68.30
21115;DHT22;10715;48.546;9.896;2023-05-29T14:46:17;22.30;70.10
21115;DHT22;10715;48.546;9.896;2023-05-29T14:48:43;22.40;69.00
21115;DHT22;10715;48.546;9.896;2023-05-29T14:51:09;22.40;69.30
21115;DHT22;10715;48.546;9.896;2023-05-29T14:53:36;22.40;68.70
21115;DHT22;10715;48.546;9.896;2023-05-29T14:56:01;22.40;65.40
21115;DHT22;10715;48.546;9.896;2023-05-29T14:58:27;22.40;66.90
21115;DHT22;10715;48.546;9.896;2023-05-29T15:00:53;22.30;67.30
21115;DHT22;10715;48.546;9.896;2023-05-29T15:03:19;22.30;68.00
21115;DHT22;10715;48.546;9.896;2023-05-29T15:05:45;22.30;67.80
21115;DHT22;10715;48.546;9.896;2023-05-29T15:08:11;22.40;65.90
21115;DHT22;10715;48.546;9.896;2023-05-29T15:10:37;22.40;65.40
21115;DHT22;10715;48.546;9.896;2023-05-29T15:13:02;22.40;65.90
21115;DHT22;10715;48.546;9.896;2023-05-29T15:15:29;22.40;63.90
21115;DHT22;10715;48.546;9.896;2023-05-29T15:17:55;22.40;65.00
21115;DHT22;10715;48.546;9.896;2023-05-29T15:20:22;22.40;64.20
21115;DHT22;10715;48.546;9.896;2023-05-29T15:22:48;22.40;62.90
21115;DHT22;10715;48.546;9.896;2023-05-29T15:25:15;22.40;61.10
21115;DHT22;10715;48.546;9.896;2023-05-29T15:27:41;22.40;62.00
21115;DHT22;10715;48.546;9.896;2023-05-29T15:30:08;22.40;61.50
21115;DHT22;10715;48.546;9.896;2023-05-29T15:32:35;22.40;60.70
21115;DHT22;10715;48.546;9.896;2023-05-29T15:35:00;22.30;61.20
21115;DHT22;10715;48.546;9.896;2023-05-29T15:37:26;22.30;61.00
21115;DHT22;10715;48.546;9.896;2023-05-29T15:39:55;22.30;62.20
21115;DHT22;10715;48.546;9.896;2023-05-29T15:42:21;22.30;60.70
21115;DHT22;10715;48.546;9.896;2023-05-29T15:44:47;22.30;62.10
21115;DHT22;10715;48.546;9.896;2023-05-29T15:47:13;22.30;61.20
21115;DHT22;10715;48.546;9.896;2023-05-29T15:49:39;22.30;59.90
21115;DHT22;10715;48.546;9.896;2023-05-29T15:52:05;22.30;60.90
21115;DHT22;10715;48.546;9.896;2023-05-29T15:54:30;22.30;62.60
21115;DHT22;10715;48.546;9.896;2023-05-29T15:56:56;22.40;62.30
21115;DHT22;10715;48.546;9.896;2023-05-29T15:59:22;22.30;60.00
21115;DHT22;10715;48.546;9.896;2023-05-29T16:01:47;22.30;61.80